This is the latest recevied weather packets stored in our database for station/object IK1AMC-3. If no packets are shown the sender has not sent any weather packets the latest 10 day(s).
| Time | Temp. | Humidity | Pressure | Rain* | Wind** | Luminosity | Snow |
|---|---|---|---|---|---|---|---|
| 1777335460 | 17.78° C | 75% | 1016.4 hPa | - | - | - | - |
| 1777334259 | 17.78° C | 76% | 1016.3 hPa | - | - | - | - |
| 1777333058 | 17.22° C | 77% | 1016.5 hPa | - | - | - | - |
| 1777331856 | 17.22° C | 78% | 1016.6 hPa | - | - | - | - |
| 1777330655 | 17.22° C | 78% | 1016.5 hPa | - | - | - | - |
| 1777329454 | 17.22° C | 78% | 1016.6 hPa | - | - | - | - |
| 1777328252 | 17.78° C | 76% | 1016.6 hPa | - | - | - | - |
| 1777327051 | 17.78° C | 76% | 1016.8 hPa | - | - | - | - |
| 1777325850 | 17.78° C | 76% | 1016.6 hPa | - | - | - | - |
| 1777324648 | 17.78° C | 76% | 1016.6 hPa | - | - | - | - |
| 1777323447 | 17.22° C | 77% | 1016.6 hPa | - | - | - | - |
| 1777322245 | 17.78° C | 75% | 1016.7 hPa | - | - | - | - |
| 1777321044 | 17.78° C | 73% | 1016.8 hPa | - | - | - | - |
| 1777319843 | 18.33° C | 71% | 1016.8 hPa | - | - | - | - |
| 1777318641 | 18.33° C | 70% | 1016.8 hPa | - | - | - | - |
| 1777317440 | 18.89° C | 69% | 1016.6 hPa | - | - | - | - |
| 1777316239 | 18.89° C | 68% | 1016.5 hPa | - | - | - | - |
| 1777315038 | 18.89° C | 70% | 1016.3 hPa | - | - | - | - |
| 1777313836 | 18.89° C | 71% | 1016.2 hPa | - | - | - | - |
| 1777312635 | 18.89° C | 70% | 1016.2 hPa | - | - | - | - |
| 1777311434 | 18.89° C | 70% | 1016.2 hPa | - | - | - | - |
| 1777310232 | 19.44° C | 67% | 1016.2 hPa | - | - | - | - |
| 1777309031 | 18.89° C | 70% | 1016.3 hPa | - | - | - | - |
| 1777307829 | 19.44° C | 66% | 1016.2 hPa | - | - | - | - |
| 1777306628 | 20° C | 62% | 1016.3 hPa | - | - | - | - |
* Rain since midnight (hover to see other rain measurements)
** Current wind speed in m/s (hover to see current wind gust speed)